createdAt,value
2019-01-23T00:00:46.713Z,44.57
2019-01-23T00:03:17.265Z,39.53
2019-01-23T00:05:46.874Z,41.67
2019-01-23T00:08:16.501Z,43.20
2019-01-23T00:10:46.711Z,40.70
2019-01-23T00:13:16.353Z,40.83
2019-01-23T00:15:46.129Z,45.70
2019-01-23T00:18:15.758Z,45.77
2019-01-23T00:20:45.612Z,43.90
2019-01-23T00:23:15.463Z,43.47
2019-01-23T00:25:45.180Z,42.30
2019-01-23T00:28:14.808Z,46.90
2019-01-23T00:30:44.446Z,38.23
2019-01-23T00:33:14.183Z,43.83
2019-01-23T00:35:43.901Z,43.40
2019-01-23T00:38:13.501Z,43.90
2019-01-23T00:40:43.208Z,40.83
2019-01-23T00:43:12.963Z,46.50
2019-01-23T00:45:42.595Z,45.57
2019-01-23T00:48:12.201Z,42.20
2019-01-23T00:50:42.327Z,42.97
2019-01-23T00:53:12.725Z,42.23
2019-01-23T00:55:42.470Z,49.00
2019-01-23T00:58:12.143Z,40.93
2019-01-23T01:00:42.850Z,41.10
2019-01-23T01:03:12.606Z,41.27
2019-01-23T01:05:42.296Z,43.43
2019-01-23T01:08:11.978Z,43.10
2019-01-23T01:10:41.744Z,44.30
2019-01-23T01:13:11.427Z,41.67
2019-01-23T01:15:41.166Z,43.77
2019-01-23T01:18:10.918Z,47.17
2019-01-23T01:20:41.090Z,42.57
2019-01-23T01:23:10.846Z,41.13
2019-01-23T01:25:40.714Z,46.97
2019-01-23T01:28:10.336Z,45.20
2019-01-23T01:30:40.073Z,49.00
2019-01-23T01:33:10.678Z,45.13
2019-01-23T01:35:40.491Z,49.23
2019-01-23T01:38:10.202Z,43.83
2019-01-23T01:40:40.014Z,45.17
2019-01-23T01:43:09.621Z,45.20
2019-01-23T01:45:39.265Z,46.67
2019-01-23T01:48:08.887Z,43.43
2019-01-23T01:50:38.621Z,40.27
2019-01-23T01:53:08.302Z,42.20
2019-01-23T01:55:37.946Z,44.33
2019-01-23T01:58:10.238Z,44.63
2019-01-23T02:00:51.581Z,41.97
2019-01-23T02:03:21.189Z,41.67
2019-01-23T02:05:51.134Z,45.77
2019-01-23T02:08:20.868Z,45.17
2019-01-23T02:10:50.561Z,45.57
2019-01-23T02:13:20.180Z,43.13
2019-01-23T02:15:49.818Z,43.67
2019-01-23T02:18:19.521Z,43.87
2019-01-23T02:20:49.266Z,45.63
2019-01-23T02:23:18.973Z,41.30
2019-01-23T02:25:48.813Z,40.73
2019-01-23T02:28:18.526Z,40.00
2019-01-23T02:30:48.270Z,46.13
2019-01-23T02:33:17.879Z,44.93
2019-01-23T02:35:48.216Z,45.30
2019-01-23T02:38:17.821Z,39.13
2019-01-23T02:40:47.453Z,41.90
2019-01-23T02:43:17.061Z,42.43
2019-01-23T02:45:46.697Z,41.17
2019-01-23T02:48:16.309Z,42.73
2019-01-23T02:50:46.065Z,41.47
2019-01-23T02:53:15.683Z,41.13
2019-01-23T02:55:45.410Z,42.80
2019-01-23T02:58:15.022Z,45.43
2019-01-23T03:00:44.660Z,42.90
2019-01-23T03:03:14.267Z,43.67
2019-01-23T03:05:44.016Z,48.90
2019-01-23T03:08:13.641Z,43.50
2019-01-23T03:10:43.264Z,43.67
2019-01-23T03:13:13.073Z,47.97
2019-01-23T03:15:42.995Z,44.53
2019-01-23T03:18:12.809Z,42.20
2019-01-23T03:20:42.438Z,42.40
2019-01-23T03:23:12.074Z,46.47
2019-01-23T03:25:41.718Z,46.20
2019-01-23T03:28:13.086Z,43.80
2019-01-23T03:30:42.704Z,45.43
2019-01-23T03:33:12.341Z,46.60
2019-01-23T03:35:42.014Z,41.73
2019-01-23T03:38:11.672Z,40.07
2019-01-23T03:41:00.802Z,45.90
2019-01-23T03:43:42.873Z,42.50
2019-01-23T03:46:24.707Z,46.00
2019-01-23T03:49:06.103Z,44.00
2019-01-23T03:51:35.851Z,43.73
2019-01-23T03:54:24.819Z,45.90
2019-01-23T03:57:07.220Z,42.30
2019-01-23T03:59:49.278Z,43.90
2019-01-23T04:02:31.226Z,44.03
2019-01-23T04:05:12.919Z,48.03
2019-01-23T04:07:42.723Z,45.17
2019-01-23T04:10:31.714Z,42.63
2019-01-23T04:13:01.322Z,39.70
2019-01-23T04:15:31.326Z,45.90
2019-01-23T04:18:01.051Z,48.13
2019-01-23T04:20:30.813Z,46.93
2019-01-23T04:23:00.569Z,42.50
2019-01-23T04:25:49.642Z,42.63
2019-01-23T04:28:31.919Z,44.13
2019-01-23T04:31:13.359Z,45.00
2019-01-23T04:33:55.219Z,44.63
2019-01-23T04:36:37.347Z,45.80
2019-01-23T04:39:19.692Z,45.60
2019-01-23T04:42:01.672Z,51.47
2019-01-23T04:44:43.934Z,48.87
2019-01-23T04:47:25.854Z,49.07
2019-01-23T04:50:07.727Z,42.73
2019-01-23T04:53:08.427Z,50.57
2019-01-23T04:55:50.051Z,50.63
2019-01-23T04:58:31.520Z,47.57
2019-01-23T05:01:13.531Z,53.93
2019-01-23T05:03:55.531Z,48.93
2019-01-23T05:06:38.960Z,51.47
2019-01-23T05:09:20.931Z,54.27
2019-01-23T05:12:02.824Z,50.93
2019-01-23T05:14:44.652Z,50.70
2019-01-23T05:17:26.276Z,55.27
2019-01-23T05:20:08.487Z,52.07
2019-01-23T05:22:50.385Z,55.63
2019-01-23T05:25:32.196Z,51.07
2019-01-23T05:28:14.406Z,51.97
2019-01-23T05:30:56.395Z,50.53
2019-01-23T05:33:38.467Z,50.13
2019-01-23T05:36:20.564Z,50.67
2019-01-23T05:39:02.812Z,50.17
2019-01-23T05:41:44.917Z,54.20
2019-01-23T05:44:27.147Z,47.37
2019-01-23T05:47:09.099Z,48.87
2019-01-23T05:49:51.111Z,52.50
2019-01-23T05:52:32.919Z,53.27
2019-01-23T05:55:15.279Z,49.60
2019-01-23T05:57:57.343Z,47.77
2019-01-23T06:00:39.263Z,50.73
2019-01-23T06:03:21.538Z,53.10
2019-01-23T06:06:03.555Z,51.30
2019-01-23T06:08:45.150Z,50.40
2019-01-23T06:11:27.064Z,54.37
2019-01-23T06:14:09.168Z,54.23
2019-01-23T06:16:51.244Z,53.60
2019-01-23T06:19:33.263Z,57.10
2019-01-23T06:22:15.162Z,53.23
2019-01-23T06:24:56.847Z,53.17
2019-01-23T06:27:38.641Z,56.73
2019-01-23T06:30:19.989Z,55.17
2019-01-23T06:33:02.058Z,56.07
2019-01-23T06:35:44.323Z,54.43
2019-01-23T06:38:26.414Z,53.27
2019-01-23T06:41:08.096Z,61.60
2019-01-23T06:43:50.306Z,57.83
2019-01-23T06:46:31.791Z,52.17
2019-01-23T06:49:13.771Z,56.47
2019-01-23T06:51:55.441Z,56.33
2019-01-23T06:54:37.131Z,58.70
2019-01-23T06:57:19.051Z,65.10
2019-01-23T07:00:00.944Z,58.27
2019-01-23T07:02:42.934Z,53.17
2019-01-23T07:05:24.958Z,54.37
2019-01-23T07:08:06.604Z,64.93
2019-01-23T07:10:48.995Z,66.40
2019-01-23T07:13:30.985Z,57.53
2019-01-23T07:16:13.318Z,62.93
2019-01-23T07:18:55.120Z,52.90
2019-01-23T07:21:37.403Z,54.50
2019-01-23T07:24:19.415Z,56.27
2019-01-23T07:27:01.590Z,54.10
2019-01-23T07:29:43.344Z,59.10
2019-01-23T07:32:25.138Z,52.40
2019-01-23T07:35:06.607Z,56.90
2019-01-23T07:37:48.609Z,57.53
2019-01-23T07:40:30.935Z,54.93
2019-01-23T07:43:12.808Z,58.13
2019-01-23T07:45:55.036Z,61.80
2019-01-23T07:48:37.081Z,54.87
2019-01-23T07:51:19.193Z,55.20
2019-01-23T07:54:01.155Z,56.03
2019-01-23T07:56:43.020Z,55.97
2019-01-23T07:59:25.014Z,53.70
2019-01-23T08:02:06.774Z,56.70
2019-01-23T08:04:48.826Z,55.17
2019-01-23T08:07:30.575Z,53.07
2019-01-23T08:10:12.517Z,53.60
2019-01-23T08:12:54.455Z,52.80
2019-01-23T08:15:36.359Z,52.13
2019-01-23T08:18:18.119Z,55.37
2019-01-23T08:21:00.115Z,50.13
2019-01-23T08:23:42.195Z,50.83
2019-01-23T08:26:24.118Z,56.33
2019-01-23T08:29:06.279Z,51.03
2019-01-23T08:31:48.174Z,51.27
2019-01-23T08:34:30.066Z,51.13
2019-01-23T08:37:12.115Z,45.37
2019-01-23T08:39:54.288Z,41.57
2019-01-23T08:42:36.131Z,49.13
2019-01-23T08:45:17.928Z,46.70
2019-01-23T08:47:59.386Z,48.83
2019-01-23T08:50:41.159Z,51.70
2019-01-23T08:53:23.922Z,48.83
2019-01-23T08:56:06.052Z,54.43
2019-01-23T08:58:48.178Z,50.80
2019-01-23T09:01:30.310Z,51.83
2019-01-23T09:04:14.403Z,52.47
2019-01-23T09:06:56.422Z,49.50
2019-01-23T09:09:38.291Z,49.60
2019-01-23T09:12:20.543Z,48.60
2019-01-23T09:15:02.835Z,45.67
2019-01-23T09:17:44.919Z,52.00
2019-01-23T09:20:27.890Z,45.80
2019-01-23T09:23:11.109Z,48.93
2019-01-23T09:25:54.674Z,51.00
2019-01-23T09:28:36.655Z,49.53
2019-01-23T09:31:19.111Z,50.93
2019-01-23T09:34:03.977Z,53.57
2019-01-23T09:36:45.552Z,54.30
2019-01-23T09:39:27.071Z,49.40
2019-01-23T09:42:08.988Z,52.87
2019-01-23T09:44:50.681Z,51.10
2019-01-23T09:47:32.442Z,48.70
2019-01-23T09:50:14.702Z,50.10
2019-01-23T09:52:56.765Z,46.60
2019-01-23T09:55:38.502Z,45.43
2019-01-23T09:58:20.599Z,49.40
2019-01-23T10:01:02.576Z,43.37
2019-01-23T10:03:45.463Z,43.60
2019-01-23T10:06:27.439Z,49.97
2019-01-23T10:09:09.568Z,51.93
2019-01-23T10:11:51.200Z,49.23
2019-01-23T10:14:33.082Z,52.50
2019-01-23T10:17:15.331Z,46.67
2019-01-23T10:19:57.902Z,48.83
2019-01-23T10:22:40.518Z,48.07
2019-01-23T10:25:32.178Z,66.93
2019-01-23T10:28:36.545Z,59.77
2019-01-23T10:31:21.306Z,51.03
2019-01-23T10:34:02.825Z,47.70
2019-01-23T10:36:58.729Z,51.93
2019-01-23T10:39:52.466Z,46.93
2019-01-23T10:49:13.167Z,51.30
2019-01-23T10:52:03.476Z,50.40
2019-01-23T11:01:13.218Z,49.57
2019-01-23T11:03:53.597Z,45.20
2019-01-23T11:06:38.900Z,53.23
2019-01-23T11:09:27.065Z,53.63
2019-01-23T11:12:16.502Z,50.23
2019-01-23T11:15:23.309Z,56.50
2019-01-23T11:18:08.273Z,53.07
2019-01-23T11:20:53.362Z,54.77
2019-01-23T11:23:36.156Z,51.60
2019-01-23T11:26:21.155Z,54.57
2019-01-23T11:29:04.474Z,50.97
2019-01-23T11:31:46.713Z,53.60
2019-01-23T11:34:30.138Z,56.87
2019-01-23T11:37:11.855Z,46.80
2019-01-23T11:39:53.700Z,56.77
2019-01-23T11:42:35.395Z,51.50
2019-01-23T11:45:17.008Z,54.37
2019-01-23T11:47:58.902Z,52.33
2019-01-23T11:50:40.723Z,54.20
2019-01-23T11:53:23.303Z,54.57
2019-01-23T11:56:05.180Z,55.97
2019-01-23T11:58:46.915Z,53.43
2019-01-23T12:01:28.679Z,55.17
2019-01-23T12:04:10.219Z,51.70
2019-01-23T12:06:52.193Z,50.67
2019-01-23T12:09:33.779Z,49.00
2019-01-23T12:12:15.319Z,51.90
2019-01-23T12:14:57.169Z,46.63
2019-01-23T12:17:39.094Z,52.70
2019-01-23T12:20:21.259Z,47.50
2019-01-23T12:23:03.518Z,50.47
2019-01-23T12:25:45.974Z,49.73
2019-01-23T12:28:29.137Z,56.10
2019-01-23T12:31:11.966Z,49.73
2019-01-23T12:33:57.246Z,46.73
2019-01-23T12:36:40.833Z,50.33
2019-01-23T12:39:24.485Z,52.93
2019-01-23T12:42:06.699Z,54.50
2019-01-23T12:44:49.474Z,53.77
2019-01-23T12:47:32.044Z,51.63
2019-01-23T12:50:13.868Z,51.57
2019-01-23T12:52:56.000Z,50.63
2019-01-23T12:55:37.825Z,49.70
2019-01-23T12:58:19.887Z,51.00
2019-01-23T13:01:01.511Z,46.77
2019-01-23T13:03:31.117Z,59.47
2019-01-23T13:06:12.782Z,56.73
2019-01-23T13:08:54.499Z,49.63
2019-01-23T13:11:37.686Z,56.90
2019-01-23T13:14:19.788Z,57.27
2019-01-23T13:16:49.487Z,54.03
2019-01-23T13:19:38.557Z,52.03
2019-01-23T13:22:20.639Z,55.70
2019-01-23T13:25:02.431Z,55.70
2019-01-23T13:27:44.680Z,55.33
2019-01-23T13:30:26.432Z,59.00
2019-01-23T13:33:08.626Z,59.20
2019-01-23T13:35:50.670Z,49.13
2019-01-23T13:38:32.868Z,54.13
2019-01-23T13:41:14.336Z,49.57
2019-01-23T13:43:56.420Z,56.87
2019-01-23T13:46:37.995Z,56.47
2019-01-23T13:49:19.887Z,48.67
2019-01-23T13:52:01.855Z,51.83
2019-01-23T13:54:43.671Z,49.27
2019-01-23T13:57:25.743Z,50.87
2019-01-23T14:00:07.723Z,47.80
2019-01-23T14:02:49.788Z,48.13
2019-01-23T14:05:31.750Z,49.00
2019-01-23T14:08:13.850Z,50.30
2019-01-23T14:10:55.759Z,57.07
2019-01-23T14:13:37.535Z,59.33
2019-01-23T14:16:19.643Z,62.43
2019-01-23T14:19:01.214Z,61.30
2019-01-23T14:21:43.021Z,62.93
2019-01-23T14:24:25.225Z,59.20
2019-01-23T14:27:06.919Z,57.57
2019-01-23T14:29:49.306Z,64.83
2019-01-23T14:32:31.371Z,68.43
2019-01-23T14:35:13.080Z,65.27
2019-01-23T14:38:00.528Z,61.83
2019-01-23T14:40:38.128Z,65.50
2019-01-23T14:43:20.246Z,63.23
2019-01-23T14:46:01.753Z,69.63
2019-01-23T14:48:43.698Z,64.00
2019-01-23T14:51:25.311Z,67.03
2019-01-23T14:54:07.819Z,70.20
2019-01-23T14:56:38.188Z,71.33
2019-01-23T14:59:27.912Z,68.93
2019-01-23T15:02:10.371Z,66.33
2019-01-23T15:04:52.097Z,69.00
2019-01-23T15:07:34.399Z,65.70
2019-01-23T15:10:16.380Z,65.90
2019-01-23T15:12:58.459Z,62.70
2019-01-23T15:15:40.784Z,72.97
2019-01-23T15:18:22.793Z,70.50
2019-01-23T15:21:04.654Z,64.97
2019-01-23T15:23:47.952Z,67.47
2019-01-23T15:26:30.012Z,67.63
2019-01-23T15:29:12.514Z,65.57
2019-01-23T15:31:55.477Z,68.77
2019-01-23T15:34:38.742Z,64.73
2019-01-23T15:37:20.864Z,73.40
2019-01-23T15:40:02.898Z,71.40
2019-01-23T15:42:44.934Z,68.33
2019-01-23T15:45:26.692Z,73.73
2019-01-23T15:48:09.102Z,67.40
2019-01-23T15:50:51.485Z,60.00
2019-01-23T15:53:34.884Z,68.00
2019-01-23T15:56:16.987Z,61.00
2019-01-23T15:58:58.811Z,53.57
2019-01-23T16:01:41.309Z,66.57
2019-01-23T16:04:23.295Z,68.67
2019-01-23T16:07:04.679Z,63.20
2019-01-23T16:09:46.871Z,61.47
2019-01-23T16:12:29.813Z,57.53
2019-01-23T16:15:11.834Z,71.80
2019-01-23T16:17:54.027Z,61.50
2019-01-23T16:20:36.151Z,61.20
2019-01-23T16:23:18.185Z,60.40
2019-01-23T16:25:59.952Z,65.47
2019-01-23T16:28:42.102Z,58.53
2019-01-23T16:31:23.886Z,56.03
2019-01-23T16:34:06.027Z,51.97
2019-01-23T16:36:47.810Z,54.67
2019-01-23T16:39:30.125Z,52.43
2019-01-23T16:42:12.165Z,56.13
2019-01-23T16:44:54.233Z,57.67
2019-01-23T16:47:36.476Z,54.80
2019-01-23T16:50:18.772Z,57.20
2019-01-23T16:53:00.578Z,51.43
2019-01-23T16:55:42.810Z,50.37
2019-01-23T16:58:25.121Z,46.43
2019-01-23T17:01:06.906Z,47.13
2019-01-23T17:03:49.083Z,55.33
2019-01-23T17:09:27.077Z,47.97
2019-01-23T17:12:09.388Z,45.63
2019-01-23T17:14:51.828Z,47.97
2019-01-23T17:17:33.795Z,52.93
2019-01-23T17:20:16.221Z,48.63
2019-01-23T17:22:59.079Z,49.20
2019-01-23T17:25:41.187Z,53.93
2019-01-23T17:28:23.404Z,49.80
2019-01-23T17:31:06.035Z,51.97
2019-01-23T17:33:47.922Z,49.73
2019-01-23T17:36:30.131Z,52.33
2019-01-23T17:39:12.646Z,49.63
2019-01-23T17:41:56.462Z,50.77
2019-01-23T17:44:38.627Z,48.57
2019-01-23T17:47:21.249Z,57.80
2019-01-23T17:50:04.801Z,52.03
2019-01-23T17:52:47.005Z,45.97
2019-01-23T17:55:28.496Z,56.07
2019-01-23T17:58:17.431Z,59.77
2019-01-23T18:00:54.408Z,65.13
2019-01-23T18:03:24.086Z,65.33
2019-01-23T18:05:53.793Z,56.00
2019-01-23T18:08:23.871Z,60.83
2019-01-23T18:10:53.834Z,61.83
2019-01-23T18:13:23.495Z,57.07
2019-01-23T18:15:53.330Z,59.50
2019-01-23T18:18:22.945Z,62.00
2019-01-23T18:20:52.581Z,63.63
2019-01-23T18:23:22.187Z,66.10
2019-01-23T18:25:51.818Z,69.07
2019-01-23T18:28:21.498Z,58.80
2019-01-23T18:31:25.234Z,58.97
2019-01-23T18:34:14.769Z,66.87
2019-01-23T18:37:05.858Z,62.30
2019-01-23T18:39:47.294Z,60.57
2019-01-23T18:42:38.230Z,54.00
2019-01-23T18:45:13.625Z,60.60
2019-01-23T18:48:04.112Z,59.87
2019-01-23T18:50:39.530Z,60.20
2019-01-23T18:53:10.532Z,61.35
2019-01-23T18:55:40.418Z,58.47
2019-01-23T18:58:10.178Z,55.50
2019-01-23T19:00:39.817Z,63.43
2019-01-23T19:03:09.588Z,63.63
2019-01-23T19:05:39.269Z,69.30
2019-01-23T19:08:08.973Z,66.67
2019-01-23T19:10:39.424Z,67.00
2019-01-23T19:13:09.234Z,69.50
2019-01-23T19:15:39.328Z,71.90
2019-01-23T19:18:09.099Z,61.73
2019-01-23T19:20:39.481Z,62.47
2019-01-23T19:23:09.220Z,72.23
2019-01-23T19:25:38.931Z,66.43
2019-01-23T19:28:08.573Z,67.57
2019-01-23T19:30:38.662Z,72.37
2019-01-23T19:33:13.469Z,64.37
2019-01-23T19:35:39.866Z,67.07
2019-01-23T19:38:09.494Z,64.03
2019-01-23T19:40:39.312Z,58.90
2019-01-23T19:43:09.042Z,57.90
2019-01-23T19:45:38.923Z,58.60
2019-01-23T19:48:08.710Z,56.33
2019-01-23T19:50:38.445Z,60.37
2019-01-23T19:53:20.194Z,61.43
2019-01-23T19:55:51.917Z,54.67
2019-01-23T19:58:21.727Z,56.00
2019-01-23T20:00:51.781Z,54.43
2019-01-23T20:03:21.659Z,54.87
2019-01-23T20:05:51.270Z,54.93
2019-01-23T20:08:21.061Z,53.63
2019-01-23T20:10:50.782Z,52.70
2019-01-23T20:13:20.482Z,49.53
2019-01-23T20:15:50.189Z,49.27
2019-01-23T20:18:19.910Z,53.90
2019-01-23T20:20:49.694Z,55.93
2019-01-23T20:23:19.342Z,60.80
2019-01-23T20:25:48.957Z,61.57
2019-01-23T20:28:18.691Z,60.70
2019-01-23T20:30:48.414Z,55.33
2019-01-23T20:33:18.043Z,50.10
2019-01-23T20:35:47.766Z,47.43
2019-01-23T20:38:17.566Z,53.43
2019-01-23T20:40:47.518Z,52.20
2019-01-23T20:43:17.130Z,51.30
2019-01-23T20:45:47.018Z,46.33
2019-01-23T20:48:16.652Z,58.90
2019-01-23T20:50:46.319Z,51.00
2019-01-23T20:53:15.905Z,51.07
2019-01-23T20:55:45.523Z,46.93
2019-01-23T20:58:15.375Z,52.70
2019-01-23T21:00:45.150Z,52.47
2019-01-23T21:03:14.764Z,57.37
2019-01-23T21:05:44.502Z,54.03
2019-01-23T21:08:14.197Z,49.30
2019-01-23T21:10:44.312Z,51.40
2019-01-23T21:13:13.962Z,51.10
2019-01-23T21:15:43.606Z,53.17
2019-01-23T21:18:13.413Z,52.37
2019-01-23T21:20:43.186Z,56.20
2019-01-23T21:23:12.792Z,56.27
2019-01-23T21:25:42.731Z,52.70
2019-01-23T21:28:12.434Z,53.23
2019-01-23T21:30:42.103Z,57.20
2019-01-23T21:33:11.713Z,52.83
2019-01-23T21:35:41.338Z,58.90
2019-01-23T21:38:10.997Z,54.67
2019-01-23T21:40:40.623Z,51.73
2019-01-23T21:43:10.229Z,52.73
2019-01-23T21:45:39.967Z,57.33
2019-01-23T21:48:09.609Z,50.13
2019-01-23T21:50:39.241Z,53.33
2019-01-23T21:53:08.845Z,55.87
2019-01-23T21:55:38.482Z,59.03
2019-01-23T21:58:08.194Z,53.83
2019-01-23T22:00:40.953Z,54.60
2019-01-23T22:03:11.598Z,57.73
2019-01-23T22:05:41.410Z,60.47
2019-01-23T22:08:11.091Z,52.83
2019-01-23T22:10:40.830Z,56.00
2019-01-23T22:13:10.437Z,57.80
2019-01-23T22:15:40.261Z,56.03
2019-01-23T22:18:09.943Z,55.43
2019-01-23T22:20:41.382Z,48.83
2019-01-23T22:23:11.060Z,52.13
2019-01-23T22:25:40.693Z,51.07
2019-01-23T22:28:10.301Z,55.97
2019-01-23T22:30:40.110Z,53.27
2019-01-23T22:33:09.831Z,60.23
2019-01-23T22:35:39.466Z,62.40
2019-01-23T22:38:09.214Z,55.00
2019-01-23T22:40:38.921Z,49.43
2019-01-23T22:43:14.839Z,59.80
2019-01-23T22:45:39.794Z,58.43
2019-01-23T22:48:09.406Z,53.00
2019-01-23T22:50:39.085Z,57.37
2019-01-23T22:53:08.702Z,55.53
2019-01-23T22:55:38.347Z,57.37
2019-01-23T22:58:08.026Z,52.93
2019-01-23T23:00:41.629Z,60.33
2019-01-23T23:03:13.379Z,57.60
2019-01-23T23:05:44.521Z,53.40
2019-01-23T23:08:14.409Z,58.70
2019-01-23T23:10:44.210Z,63.87
2019-01-23T23:13:13.930Z,56.83
2019-01-23T23:15:43.729Z,60.43
2019-01-23T23:18:13.419Z,64.97
2019-01-23T23:20:43.174Z,64.33
2019-01-23T23:23:12.794Z,58.17
2019-01-23T23:25:42.541Z,59.57
2019-01-23T23:28:12.356Z,64.77
2019-01-23T23:30:41.961Z,59.97
2019-01-23T23:33:13.253Z,59.57
2019-01-23T23:35:42.919Z,61.90
2019-01-23T23:38:12.555Z,60.10
2019-01-23T23:40:42.161Z,64.83
2019-01-23T23:43:11.798Z,64.70
2019-01-23T23:45:41.478Z,62.30
2019-01-23T23:48:11.187Z,63.33
2019-01-23T23:50:40.899Z,60.00
2019-01-23T23:53:10.691Z,66.03
2019-01-23T23:55:40.492Z,67.63
2019-01-23T23:58:10.323Z,65.33
